createdAt,value
2018-12-06T00:01:53.135Z,7.37
2018-12-06T00:04:22.236Z,5.83
2018-12-06T00:06:51.262Z,6.50
2018-12-06T00:09:20.338Z,6.83
2018-12-06T00:11:49.592Z,6.57
2018-12-06T00:14:18.585Z,6.20
2018-12-06T00:16:56.018Z,6.83
2018-12-06T00:19:25.063Z,6.12
2018-12-06T00:21:54.074Z,6.23
2018-12-06T00:24:23.191Z,5.90
2018-12-06T00:26:52.607Z,5.50
2018-12-06T00:29:21.818Z,5.90
2018-12-06T00:31:50.921Z,6.63
2018-12-06T00:34:20.123Z,5.70
2018-12-06T00:36:49.194Z,6.43
2018-12-06T00:39:18.293Z,6.23
2018-12-06T00:41:47.295Z,5.90
2018-12-06T00:44:16.246Z,7.10
2018-12-06T00:46:45.334Z,7.10
2018-12-06T00:49:14.427Z,6.00
2018-12-06T00:51:43.668Z,5.03
2018-12-06T00:54:12.949Z,5.83
2018-12-06T00:56:42.095Z,5.17
2018-12-06T00:59:11.113Z,5.47
2018-12-06T01:01:40.261Z,4.80
2018-12-06T01:04:09.443Z,5.40
2018-12-06T01:06:39.137Z,5.87
2018-12-06T01:09:08.141Z,6.33
2018-12-06T01:11:37.316Z,6.27
2018-12-06T01:14:06.397Z,6.15
2018-12-06T01:16:35.498Z,6.47
2018-12-06T01:19:04.589Z,5.40
2018-12-06T01:21:33.881Z,5.07
2018-12-06T01:24:02.988Z,5.37
2018-12-06T01:26:32.189Z,6.13
2018-12-06T01:29:01.338Z,5.67
2018-12-06T01:31:30.416Z,5.60
2018-12-06T01:33:59.421Z,5.10
2018-12-06T01:36:28.489Z,6.10
2018-12-06T01:38:57.558Z,5.17
2018-12-06T01:41:26.652Z,5.80
2018-12-06T01:43:55.745Z,5.70
2018-12-06T01:46:24.945Z,5.50
2018-12-06T01:48:54.033Z,5.40
2018-12-06T01:51:23.179Z,6.07
2018-12-06T01:53:52.322Z,6.20
2018-12-06T01:56:21.338Z,4.87
2018-12-06T01:58:50.397Z,5.83
2018-12-06T02:01:19.503Z,6.53
2018-12-06T02:03:48.544Z,5.10
2018-12-06T02:06:17.492Z,5.40
2018-12-06T02:08:46.613Z,4.93
2018-12-06T02:11:15.809Z,5.03
2018-12-06T02:13:44.870Z,4.87
2018-12-06T02:16:13.922Z,5.30
2018-12-06T02:18:43.281Z,5.70
2018-12-06T02:21:12.330Z,6.07
2018-12-06T02:23:41.328Z,5.50
2018-12-06T02:26:10.390Z,5.60
2018-12-06T02:28:39.616Z,5.87
2018-12-06T02:31:08.648Z,5.43
2018-12-06T02:33:37.872Z,6.27
2018-12-06T02:36:06.897Z,5.60
2018-12-06T02:38:35.933Z,5.70
2018-12-06T02:41:05.012Z,5.53
2018-12-06T02:43:34.166Z,4.93
2018-12-06T02:46:03.205Z,5.67
2018-12-06T02:48:32.268Z,5.30
2018-12-06T02:51:01.349Z,6.40
2018-12-06T02:53:30.413Z,5.60
2018-12-06T02:55:59.427Z,5.10
2018-12-06T02:58:28.398Z,4.97
2018-12-06T03:00:57.477Z,4.80
2018-12-06T03:03:27.215Z,4.87
2018-12-06T03:05:56.416Z,5.00
2018-12-06T03:08:25.470Z,5.30
2018-12-06T03:10:54.542Z,4.33
2018-12-06T03:13:23.556Z,4.93
2018-12-06T03:15:52.647Z,5.63
2018-12-06T03:18:21.889Z,4.93
2018-12-06T03:20:50.974Z,4.57
2018-12-06T03:23:20.022Z,5.20
2018-12-06T03:25:49.166Z,4.97
2018-12-06T03:28:18.196Z,5.07
2018-12-06T03:30:47.218Z,5.77
2018-12-06T03:33:16.451Z,4.90
2018-12-06T03:35:45.614Z,4.93
2018-12-06T03:38:14.697Z,5.07
2018-12-06T03:40:43.787Z,5.53
2018-12-06T03:43:13.370Z,4.23
2018-12-06T03:45:42.358Z,4.97
2018-12-06T03:48:11.370Z,4.90
2018-12-06T03:50:40.384Z,5.20
2018-12-06T03:53:09.481Z,5.20
2018-12-06T03:55:38.563Z,4.50
2018-12-06T03:58:07.694Z,4.20
2018-12-06T04:00:36.754Z,4.10
2018-12-06T04:03:05.817Z,4.80
2018-12-06T04:05:34.866Z,4.57
2018-12-06T04:08:03.938Z,4.40
2018-12-06T04:10:33.593Z,3.97
2018-12-06T04:13:02.572Z,4.63
2018-12-06T04:15:31.806Z,4.77
2018-12-06T04:18:00.780Z,5.63
2018-12-06T04:20:29.764Z,4.90
2018-12-06T04:22:58.798Z,4.10
2018-12-06T04:25:27.874Z,4.73
2018-12-06T04:27:56.897Z,4.47
2018-12-06T04:30:25.962Z,4.10
2018-12-06T04:32:55.014Z,4.40
2018-12-06T04:35:24.109Z,4.13
2018-12-06T04:37:53.163Z,4.47
2018-12-06T04:40:22.229Z,4.93
2018-12-06T04:42:51.283Z,4.70
2018-12-06T04:45:20.309Z,4.10
2018-12-06T04:47:49.354Z,5.73
2018-12-06T04:50:18.565Z,4.40
2018-12-06T04:52:47.593Z,4.77
2018-12-06T04:55:16.633Z,4.40
2018-12-06T04:57:45.799Z,3.73
2018-12-06T05:00:14.856Z,3.70
2018-12-06T05:02:43.914Z,4.63
2018-12-06T05:05:13.020Z,4.97
2018-12-06T05:07:42.286Z,4.43
2018-12-06T05:10:11.330Z,4.43
2018-12-06T05:12:40.373Z,4.10
2018-12-06T05:15:09.428Z,4.03
2018-12-06T05:17:38.571Z,4.30
2018-12-06T05:20:07.624Z,3.77
2018-12-06T05:22:36.688Z,4.33
2018-12-06T05:25:06.308Z,5.03
2018-12-06T05:27:35.480Z,4.57
2018-12-06T05:30:05.227Z,4.23
2018-12-06T05:32:34.310Z,5.73
2018-12-06T05:35:03.412Z,4.17
2018-12-06T05:37:32.469Z,4.60
2018-12-06T05:40:01.511Z,4.23
2018-12-06T05:42:30.525Z,4.10
2018-12-06T05:44:59.542Z,3.50
2018-12-06T05:47:28.698Z,4.23
2018-12-06T05:49:57.738Z,4.40
2018-12-06T05:52:26.839Z,3.80
2018-12-06T05:54:55.939Z,4.20
2018-12-06T05:57:24.937Z,3.60
2018-12-06T05:59:54.286Z,4.00
2018-12-06T06:02:23.362Z,4.63
2018-12-06T06:04:52.394Z,3.93
2018-12-06T06:07:21.708Z,4.10
2018-12-06T06:09:50.753Z,4.20
2018-12-06T06:12:19.826Z,4.30
2018-12-06T06:14:48.898Z,3.53
2018-12-06T06:17:17.809Z,3.97
2018-12-06T06:19:46.977Z,5.00
2018-12-06T06:22:16.146Z,3.87
2018-12-06T06:24:45.175Z,3.20
2018-12-06T06:27:14.201Z,3.83
2018-12-06T06:29:43.162Z,5.47
2018-12-06T06:32:12.082Z,4.07
2018-12-06T06:34:41.195Z,4.80
2018-12-06T06:37:10.662Z,4.13
2018-12-06T06:39:40.124Z,3.67
2018-12-06T06:42:09.145Z,6.03
2018-12-06T06:44:38.258Z,3.93
2018-12-06T06:47:07.254Z,4.60
2018-12-06T06:49:36.205Z,4.10
2018-12-06T06:52:05.197Z,4.10
2018-12-06T06:54:34.204Z,4.63
2018-12-06T06:57:03.325Z,4.73
2018-12-06T06:59:32.455Z,4.20
2018-12-06T07:02:01.480Z,4.23
2018-12-06T07:04:30.530Z,5.07
2018-12-06T07:06:59.488Z,4.17
2018-12-06T07:09:28.612Z,4.40
2018-12-06T07:11:57.618Z,4.70
2018-12-06T07:14:26.713Z,4.60
2018-12-06T07:16:55.697Z,3.83
2018-12-06T07:19:24.869Z,4.57
2018-12-06T07:21:53.959Z,4.40
2018-12-06T07:24:23.575Z,3.87
2018-12-06T07:26:53.523Z,4.30
2018-12-06T07:29:22.522Z,4.50
2018-12-06T07:31:51.486Z,4.43
2018-12-06T07:34:20.500Z,4.90
2018-12-06T07:36:49.542Z,3.80
2018-12-06T07:39:20.211Z,4.00
2018-12-06T07:41:49.229Z,4.10
2018-12-06T07:44:18.384Z,4.83
2018-12-06T07:46:47.717Z,4.93
2018-12-06T07:49:16.762Z,6.00
2018-12-06T07:51:46.269Z,6.70
2018-12-06T07:54:15.322Z,4.40
2018-12-06T07:56:44.992Z,4.67
2018-12-06T07:59:13.971Z,4.00
2018-12-06T08:01:43.206Z,5.13
2018-12-06T08:04:12.919Z,4.83
2018-12-06T08:06:42.337Z,4.70
2018-12-06T08:09:11.564Z,5.60
2018-12-06T08:11:40.629Z,4.40
2018-12-06T08:14:10.137Z,3.77
2018-12-06T08:16:39.863Z,4.27
2018-12-06T08:19:10.634Z,4.50
2018-12-06T08:21:39.637Z,4.30
2018-12-06T08:24:08.600Z,4.20
2018-12-06T08:26:37.607Z,4.60
2018-12-06T08:29:07.499Z,4.73
2018-12-06T08:31:36.518Z,3.80
2018-12-06T08:34:06.359Z,5.07
2018-12-06T08:36:36.263Z,4.30
2018-12-06T08:39:07.062Z,3.67
2018-12-06T08:41:36.130Z,3.53
2018-12-06T08:44:06.141Z,3.93
2018-12-06T08:46:40.685Z,4.20
2018-12-06T08:49:10.260Z,4.37
2018-12-06T08:51:39.393Z,4.00
2018-12-06T08:54:13.603Z,3.60
2018-12-06T08:56:45.234Z,4.83
2018-12-06T08:59:14.329Z,5.60
2018-12-06T09:01:44.186Z,4.00
2018-12-06T09:04:19.128Z,4.20
2018-12-06T09:06:48.170Z,3.97
2018-12-06T09:09:17.252Z,4.23
2018-12-06T09:11:46.903Z,4.50
2018-12-06T09:14:15.845Z,4.10
2018-12-06T09:16:45.622Z,4.40
2018-12-06T09:19:14.848Z,4.40
2018-12-06T09:21:44.502Z,4.27
2018-12-06T09:24:13.560Z,4.10
2018-12-06T09:26:42.387Z,4.23
2018-12-06T09:29:11.183Z,4.60
2018-12-06T09:31:40.664Z,4.40
2018-12-06T09:34:09.586Z,4.37
2018-12-06T09:36:39.143Z,4.23
2018-12-06T09:39:09.680Z,3.77
2018-12-06T09:41:38.897Z,4.13
2018-12-06T09:44:07.737Z,4.47
2018-12-06T09:46:36.553Z,3.63
2018-12-06T09:49:05.602Z,4.50
2018-12-06T09:51:34.515Z,4.20
2018-12-06T09:54:03.866Z,4.40
2018-12-06T09:56:32.657Z,4.40
2018-12-06T09:59:01.639Z,3.93
2018-12-06T10:01:30.410Z,4.90
2018-12-06T10:03:59.549Z,5.63
2018-12-06T10:06:28.901Z,4.73
2018-12-06T10:08:57.783Z,4.90
2018-12-06T10:11:29.210Z,4.90
2018-12-06T10:13:57.969Z,4.63
2018-12-06T10:16:27.000Z,4.67
2018-12-06T10:18:57.532Z,3.73
2018-12-06T10:21:28.057Z,5.10
2018-12-06T10:24:03.194Z,4.60
2018-12-06T10:26:32.062Z,4.73
2018-12-06T10:29:00.850Z,3.50
2018-12-06T10:31:29.581Z,4.93
2018-12-06T10:34:05.269Z,4.27
2018-12-06T10:36:34.545Z,4.10
2018-12-06T10:39:09.710Z,4.40
2018-12-06T10:41:38.549Z,4.70
2018-12-06T10:44:07.450Z,4.83
2018-12-06T10:46:36.262Z,4.10
2018-12-06T10:49:05.988Z,4.10
2018-12-06T10:51:46.592Z,4.47
2018-12-06T10:54:15.421Z,4.30
2018-12-06T10:56:44.249Z,5.13
2018-12-06T10:59:17.329Z,5.30
2018-12-06T11:01:51.478Z,4.60
2018-12-06T11:04:22.914Z,4.70
2018-12-06T11:06:52.858Z,4.70
2018-12-06T11:09:23.391Z,5.00
2018-12-06T11:11:52.250Z,3.70
2018-12-06T11:14:21.121Z,4.90
2018-12-06T11:16:50.570Z,5.07
2018-12-06T11:19:19.370Z,6.07
2018-12-06T11:21:48.207Z,5.03
2018-12-06T11:24:17.110Z,4.83
2018-12-06T11:26:46.869Z,7.07
2018-12-06T11:29:15.651Z,4.23
2018-12-06T11:31:45.263Z,5.43
2018-12-06T11:34:14.086Z,4.97
2018-12-06T11:36:43.756Z,4.63
2018-12-06T11:39:17.848Z,4.80
2018-12-06T11:41:47.573Z,5.20
2018-12-06T11:44:16.475Z,5.17
2018-12-06T11:46:45.272Z,5.70
2018-12-06T11:49:14.122Z,5.93
2018-12-06T11:51:42.966Z,5.10
2018-12-06T11:54:11.677Z,5.93
2018-12-06T11:56:40.517Z,5.27
2018-12-06T11:59:09.256Z,5.60
2018-12-06T12:01:38.096Z,5.73
2018-12-06T12:04:06.901Z,5.00
2018-12-06T12:06:35.707Z,4.10
2018-12-06T12:09:07.680Z,4.00
2018-12-06T12:11:36.561Z,6.67
2018-12-06T12:14:05.454Z,5.80
2018-12-06T12:16:34.336Z,5.40
2018-12-06T12:19:03.464Z,5.13
2018-12-06T12:21:34.028Z,5.03
2018-12-06T12:24:02.878Z,4.80
2018-12-06T12:26:31.751Z,4.30
2018-12-06T12:29:00.841Z,5.27
2018-12-06T12:31:29.691Z,5.83
2018-12-06T12:33:58.549Z,5.17
2018-12-06T12:36:27.401Z,5.33
2018-12-06T12:38:56.288Z,4.93
2018-12-06T12:41:25.884Z,6.27
2018-12-06T12:43:54.692Z,6.90
2018-12-06T12:46:25.481Z,5.60
2018-12-06T12:48:54.877Z,6.20
2018-12-06T12:51:28.116Z,5.47
2018-12-06T12:53:56.871Z,5.20
2018-12-06T12:56:25.821Z,5.00
2018-12-06T12:58:55.020Z,5.07
2018-12-06T13:01:23.915Z,5.77
2018-12-06T13:03:52.665Z,5.83
2018-12-06T13:06:21.449Z,5.20
2018-12-06T13:08:53.029Z,5.70
2018-12-06T13:11:21.721Z,5.80
2018-12-06T13:13:50.505Z,5.50
2018-12-06T13:16:19.452Z,4.30
2018-12-06T13:18:48.235Z,5.20
2018-12-06T13:21:17.035Z,5.47
2018-12-06T13:23:45.861Z,5.00
2018-12-06T13:26:14.748Z,4.50
2018-12-06T13:28:44.381Z,4.63
2018-12-06T13:31:13.833Z,6.00
2018-12-06T13:33:43.573Z,4.53
2018-12-06T13:36:12.461Z,5.60
2018-12-06T13:38:44.535Z,5.00
2018-12-06T13:41:13.296Z,5.60
2018-12-06T13:43:42.068Z,6.27
2018-12-06T13:46:10.888Z,7.00
2018-12-06T13:48:39.874Z,6.60
2018-12-06T13:51:08.738Z,5.87
2018-12-06T13:53:38.303Z,5.30
2018-12-06T13:56:07.534Z,5.70
2018-12-06T13:58:36.354Z,5.50
2018-12-06T14:01:05.511Z,6.40
2018-12-06T14:03:34.650Z,7.13
2018-12-06T14:06:03.438Z,5.40
2018-12-06T14:08:35.879Z,5.57
2018-12-06T14:11:05.489Z,4.50
2018-12-06T14:13:34.749Z,5.73
2018-12-06T14:16:10.202Z,7.40
2018-12-06T14:18:36.526Z,58.53
2018-12-06T14:21:05.344Z,12.73
2018-12-06T14:23:34.181Z,15.87
2018-12-06T14:26:03.840Z,11.00
2018-12-06T14:28:36.075Z,7.50
2018-12-06T14:31:04.881Z,6.83
2018-12-06T14:33:33.625Z,6.70
2018-12-06T14:36:02.438Z,6.70
2018-12-06T14:38:31.666Z,7.00
2018-12-06T14:41:01.061Z,7.33
2018-12-06T14:43:30.586Z,6.60
2018-12-06T14:46:01.162Z,5.93
2018-12-06T14:48:31.274Z,7.43
2018-12-06T14:51:00.476Z,7.17
2018-12-06T14:53:30.080Z,6.30
2018-12-06T14:55:58.879Z,6.07
2018-12-06T14:58:27.804Z,6.07
2018-12-06T15:00:56.596Z,6.20
2018-12-06T15:03:25.715Z,6.17
2018-12-06T15:05:55.330Z,6.70
2018-12-06T15:08:24.181Z,6.10
2018-12-06T15:10:56.230Z,5.57
2018-12-06T15:13:30.288Z,6.00
2018-12-06T15:15:59.093Z,5.30
2018-12-06T15:18:27.858Z,6.63
2018-12-06T15:20:56.606Z,6.30
2018-12-06T15:23:25.362Z,5.87
2018-12-06T15:25:54.076Z,5.80
2018-12-06T15:28:22.837Z,5.90
2018-12-06T15:30:51.631Z,6.70
2018-12-06T15:33:21.190Z,6.40
2018-12-06T15:35:51.645Z,6.53
2018-12-06T15:38:20.409Z,6.20
2018-12-06T15:40:49.168Z,5.30
2018-12-06T15:43:17.937Z,6.70
2018-12-06T15:45:46.886Z,6.10
2018-12-06T15:48:15.748Z,7.20
2018-12-06T15:50:44.762Z,6.30
2018-12-06T15:53:13.612Z,7.27
2018-12-06T15:55:42.533Z,7.27
2018-12-06T15:58:15.750Z,6.40
2018-12-06T16:00:44.500Z,6.33
2018-12-06T16:03:13.348Z,6.80
2018-12-06T16:05:43.574Z,7.07
2018-12-06T16:08:12.569Z,7.10
2018-12-06T16:10:41.326Z,8.00
2018-12-06T16:13:10.198Z,8.13
2018-12-06T16:15:39.081Z,9.00
2018-12-06T16:18:08.044Z,8.37
2018-12-06T16:20:36.957Z,9.73
2018-12-06T16:23:05.866Z,8.90
2018-12-06T16:25:34.848Z,9.80
2018-12-06T16:28:04.292Z,9.83
2018-12-06T16:30:36.304Z,11.57
2018-12-06T16:33:05.173Z,11.03
2018-12-06T16:35:34.051Z,12.77
2018-12-06T16:38:02.890Z,12.90
2018-12-06T16:40:31.741Z,36.83
2018-12-06T16:43:00.569Z,13.07
2018-12-06T16:45:29.399Z,11.50
2018-12-06T16:47:58.231Z,14.70
2018-12-06T16:50:27.036Z,12.67
2018-12-06T16:52:55.823Z,12.43
2018-12-06T16:55:24.638Z,13.30
2018-12-06T16:57:54.050Z,13.10
2018-12-06T17:00:23.273Z,15.30
2018-12-06T17:02:52.827Z,14.57
2018-12-06T17:05:21.895Z,14.83
2018-12-06T17:07:52.912Z,13.00
2018-12-06T17:10:21.766Z,14.10
2018-12-06T17:12:50.508Z,12.57
2018-12-06T17:15:19.344Z,14.07
2018-12-06T17:17:48.124Z,13.13
2018-12-06T17:20:16.944Z,12.90
2018-12-06T17:22:45.686Z,12.20
2018-12-06T17:25:14.538Z,13.83
2018-12-06T17:27:43.385Z,12.60
2018-12-06T17:30:13.825Z,12.70
2018-12-06T17:32:42.828Z,13.20
2018-12-06T17:35:11.660Z,12.50
2018-12-06T17:37:40.483Z,12.33
2018-12-06T17:40:12.628Z,12.63
2018-12-06T17:42:41.497Z,13.47
2018-12-06T17:45:10.320Z,12.90
2018-12-06T17:47:39.583Z,11.80
2018-12-06T17:50:08.301Z,13.50
2018-12-06T17:52:37.116Z,11.77
2018-12-06T17:55:06.197Z,13.10
2018-12-06T17:57:34.953Z,13.27
2018-12-06T18:00:04.974Z,12.47
2018-12-06T18:02:33.872Z,14.57
2018-12-06T18:05:02.636Z,13.07
2018-12-06T18:07:31.438Z,13.37
2018-12-06T18:10:00.372Z,12.90
2018-12-06T18:12:29.372Z,13.27
2018-12-06T18:14:59.015Z,13.83
2018-12-06T18:17:28.719Z,15.70
2018-12-06T18:20:00.871Z,13.53
2018-12-06T18:22:31.011Z,15.20
2018-12-06T18:24:59.906Z,13.50
2018-12-06T18:27:28.759Z,12.90
2018-12-06T18:29:57.612Z,15.17
2018-12-06T18:32:26.432Z,14.07
2018-12-06T18:34:55.367Z,16.07
2018-12-06T18:37:25.822Z,13.00
2018-12-06T18:39:54.579Z,14.50
2018-12-06T18:42:23.398Z,13.20
2018-12-06T18:44:53.149Z,14.40
2018-12-06T18:47:23.064Z,14.53
2018-12-06T18:49:51.877Z,13.50
2018-12-06T18:52:20.669Z,13.83
2018-12-06T18:54:49.478Z,13.87
2018-12-06T18:57:18.809Z,13.20
2018-12-06T18:59:47.717Z,13.70
2018-12-06T19:02:16.554Z,13.73
2018-12-06T19:04:45.891Z,13.50
2018-12-06T19:07:14.868Z,14.00
2018-12-06T19:09:43.742Z,13.70
2018-12-06T19:12:13.083Z,15.03
2018-12-06T19:14:41.979Z,13.90
2018-12-06T19:17:10.837Z,14.20
2018-12-06T19:19:39.759Z,12.60
2018-12-06T19:22:09.326Z,14.70
2018-12-06T19:24:38.203Z,13.67
2018-12-06T19:27:07.396Z,14.23
2018-12-06T19:29:36.214Z,14.53
2018-12-06T19:32:05.053Z,13.33
2018-12-06T19:34:34.180Z,17.07
2018-12-06T19:37:03.080Z,15.33
2018-12-06T19:39:31.921Z,14.90
2018-12-06T19:42:01.074Z,14.70
2018-12-06T19:44:29.986Z,15.60
2018-12-06T19:47:03.337Z,13.80
2018-12-06T19:49:32.127Z,15.07
2018-12-06T19:52:01.350Z,13.97
2018-12-06T19:54:30.263Z,14.83
2018-12-06T19:57:00.653Z,14.07
2018-12-06T19:59:29.542Z,13.73
2018-12-06T20:01:58.351Z,13.47
2018-12-06T20:04:27.821Z,15.67
2018-12-06T20:06:56.598Z,15.67
2018-12-06T20:09:25.794Z,14.70
2018-12-06T20:11:58.429Z,14.60
2018-12-06T20:14:27.258Z,15.57
2018-12-06T20:16:56.080Z,16.07
2018-12-06T20:19:24.984Z,15.67
2018-12-06T20:21:54.487Z,14.47
2018-12-06T20:24:23.356Z,15.37
2018-12-06T20:26:52.219Z,14.93
2018-12-06T20:29:21.029Z,15.13
2018-12-06T20:31:49.922Z,14.90
2018-12-06T20:34:18.821Z,14.57
2018-12-06T20:36:48.489Z,14.90
2018-12-06T20:39:17.534Z,14.10
2018-12-06T20:41:47.456Z,14.10
2018-12-06T20:44:16.253Z,14.70
2018-12-06T20:46:45.130Z,16.73
2018-12-06T20:49:13.988Z,15.90
2018-12-06T20:51:43.122Z,16.53
2018-12-06T20:54:11.957Z,17.50
2018-12-06T20:56:40.772Z,15.80
2018-12-06T20:59:09.686Z,18.20
2018-12-06T21:01:38.517Z,19.90
2018-12-06T21:04:07.317Z,18.67
2018-12-06T21:06:36.118Z,19.93
2018-12-06T21:09:06.849Z,19.57
2018-12-06T21:11:35.783Z,18.50
2018-12-06T21:14:05.655Z,19.40
2018-12-06T21:16:34.548Z,18.13
2018-12-06T21:19:04.386Z,20.40
2018-12-06T21:21:33.275Z,21.10
2018-12-06T21:24:02.132Z,20.13
2018-12-06T21:26:31.029Z,18.93
2018-12-06T21:28:59.848Z,17.53
2018-12-06T21:31:28.823Z,17.80
2018-12-06T21:33:57.648Z,17.60
2018-12-06T21:36:26.499Z,17.07
2018-12-06T21:38:55.381Z,17.90
2018-12-06T21:41:24.400Z,16.10
2018-12-06T21:43:53.364Z,18.67
2018-12-06T21:46:22.259Z,16.77
2018-12-06T21:48:51.134Z,17.57
2018-12-06T21:51:20.001Z,16.10
2018-12-06T21:53:49.279Z,15.07
2018-12-06T21:56:18.169Z,17.33
2018-12-06T21:58:47.661Z,15.70
2018-12-06T22:01:16.485Z,19.10
2018-12-06T22:03:45.236Z,16.63
2018-12-06T22:06:14.086Z,17.93
2018-12-06T22:08:42.953Z,17.83
2018-12-06T22:11:11.797Z,18.53
2018-12-06T22:13:40.604Z,18.50
2018-12-06T22:16:09.385Z,17.50
2018-12-06T22:18:38.476Z,19.87
2018-12-06T22:21:07.303Z,20.10
2018-12-06T22:23:36.083Z,20.03
2018-12-06T22:26:04.903Z,20.70
2018-12-06T22:28:34.222Z,20.23
2018-12-06T22:31:03.340Z,20.57
2018-12-06T22:33:32.255Z,18.93
2018-12-06T22:36:01.150Z,19.57
2018-12-06T22:38:34.095Z,19.60
2018-12-06T22:41:00.766Z,20.50
2018-12-06T22:43:29.553Z,20.77
2018-12-06T22:45:59.941Z,20.47
2018-12-06T22:48:28.840Z,22.57
2018-12-06T22:50:57.813Z,21.37
2018-12-06T22:53:26.909Z,23.23
2018-12-06T22:55:56.393Z,21.67
2018-12-06T22:58:25.403Z,21.40
2018-12-06T23:00:56.911Z,22.50
2018-12-06T23:03:26.693Z,21.17
2018-12-06T23:05:55.578Z,22.57
2018-12-06T23:08:24.404Z,20.20
2018-12-06T23:10:53.490Z,21.77
2018-12-06T23:13:22.257Z,21.10
2018-12-06T23:15:51.612Z,19.23
2018-12-06T23:18:20.462Z,18.57
2018-12-06T23:20:49.506Z,17.90
2018-12-06T23:23:18.968Z,17.43
2018-12-06T23:25:47.833Z,18.00
2018-12-06T23:28:16.653Z,18.43
2018-12-06T23:30:45.513Z,18.17
2018-12-06T23:33:14.362Z,17.97
2018-12-06T23:35:43.548Z,17.67
2018-12-06T23:38:12.361Z,16.33
2018-12-06T23:40:41.237Z,16.40
2018-12-06T23:43:10.095Z,16.77
2018-12-06T23:45:39.034Z,15.40
2018-12-06T23:48:07.825Z,15.77
2018-12-06T23:50:36.763Z,15.40
2018-12-06T23:53:05.694Z,16.07
2018-12-06T23:55:34.648Z,16.03
2018-12-06T23:58:04.335Z,14.23
